Vesper, Wisconsin
Current Conditions -  °F | °C
As of 11:54 AM on Tuesday 21 Oct 2014 (Local Time) from KISW Reporting Station
Overcast Overcast  
Wind Chill: 43°   Ceiling: 2400
Heat Index: 46°   Visibility: 10mi
Dew Point: 35°   Wind: 6mph
Humidity: 66%   Direction: 100°E
Pressure: 30.27"   Gusts: NA
Location:  44.48°N, 89.96°W
Report Text: KISW 211654Z AUTO 10005KT 10SM OVC024 08/02 A3027 RMK AO2 SLP255 T00780017
Loading
Personal Weather Stations






























Interactive Weather Map
Tropical Storm Tracking
New forecast layout! Learn more

10-Day Weather Forecast

Advertisements
Track Severe Weather on mobile